createdAt,value
2022-11-20T00:01:06.204Z,4.63
2022-11-20T00:03:32.873Z,5.40
2022-11-20T00:06:02.888Z,5.40
2022-11-20T00:08:29.558Z,5.72
2022-11-20T00:15:47.045Z,5.18
2022-11-20T00:18:13.810Z,5.20
2022-11-20T00:20:40.413Z,5.30
2022-11-20T00:23:08.000Z,5.43
2022-11-20T00:25:37.586Z,5.57
2022-11-20T00:28:04.307Z,5.30
2022-11-20T00:30:30.996Z,5.50
2022-11-20T00:32:58.057Z,5.47
2022-11-20T00:35:24.718Z,5.57
2022-11-20T00:37:51.375Z,5.43
2022-11-20T00:40:18.011Z,5.65
2022-11-20T00:42:44.686Z,5.18
2022-11-20T00:45:11.285Z,6.00
2022-11-20T00:54:54.265Z,5.20
2022-11-20T00:57:20.902Z,4.50
2022-11-20T00:59:47.524Z,5.18
2022-11-20T01:02:14.237Z,5.25
2022-11-20T01:04:41.308Z,5.15
2022-11-20T01:07:07.957Z,4.55
2022-11-20T01:09:34.760Z,6.30
2022-11-20T01:12:01.389Z,5.35
2022-11-20T01:14:28.060Z,5.60
2022-11-20T01:16:54.678Z,5.60
2022-11-20T01:19:22.708Z,5.55
2022-11-20T01:21:51.655Z,4.78
2022-11-20T01:26:45.455Z,5.38
2022-11-20T01:29:17.124Z,4.95
2022-11-20T01:31:44.326Z,5.45
2022-11-20T01:36:38.412Z,5.38
2022-11-20T01:39:06.930Z,4.72
2022-11-20T01:41:52.706Z,5.28
2022-11-20T01:44:21.159Z,5.03
2022-11-20T01:46:50.793Z,4.88
2022-11-20T01:51:51.785Z,4.78
2022-11-20T01:56:51.268Z,5.10
2022-11-20T01:59:19.377Z,5.20
2022-11-20T02:01:46.646Z,4.40
2022-11-20T02:04:14.064Z,4.68
2022-11-20T02:06:43.617Z,4.60
2022-11-20T02:11:35.918Z,4.00
2022-11-20T02:14:02.560Z,4.15
2022-11-20T02:18:57.572Z,4.70
2022-11-20T02:29:33.693Z,4.03
2022-11-20T02:32:02.290Z,3.88
2022-11-20T02:34:29.859Z,3.00
2022-11-20T02:36:57.689Z,3.25
2022-11-20T02:39:25.995Z,3.50
2022-11-20T02:41:53.855Z,3.55
2022-11-20T02:44:20.982Z,3.25
2022-11-20T02:54:04.043Z,3.28
2022-11-20T02:56:30.720Z,3.17
2022-11-20T02:58:57.375Z,3.30
2022-11-20T03:01:24.207Z,3.22
2022-11-20T03:03:50.824Z,3.28
2022-11-20T03:06:17.990Z,3.17
2022-11-20T03:08:44.696Z,3.80
2022-11-20T03:11:12.069Z,3.08
2022-11-20T03:18:33.625Z,2.88
2022-11-20T03:21:00.434Z,2.67
2022-11-20T03:23:27.146Z,3.30
2022-11-20T03:25:53.929Z,3.30
2022-11-20T03:28:20.517Z,3.20
2022-11-20T03:33:12.605Z,2.90
2022-11-20T03:35:39.259Z,2.63
2022-11-20T03:38:06.038Z,2.90
2022-11-20T03:42:58.040Z,2.30
2022-11-20T03:45:25.370Z,2.38
2022-11-20T03:50:18.158Z,3.00
2022-11-20T03:52:44.879Z,2.80
2022-11-20T03:57:36.973Z,2.75
2022-11-20T04:00:04.414Z,2.88
2022-11-20T04:07:22.034Z,2.63
2022-11-20T04:09:49.278Z,2.97
2022-11-20T04:12:15.929Z,2.42
2022-11-20T04:14:42.581Z,2.88
2022-11-20T04:17:09.333Z,2.90
2022-11-20T04:19:35.986Z,2.85
2022-11-20T04:22:02.658Z,3.08
2022-11-20T04:24:29.417Z,3.28
2022-11-20T04:26:56.053Z,3.05
2022-11-20T04:29:22.862Z,3.05
2022-11-20T04:34:15.256Z,2.80
2022-11-20T04:36:41.972Z,2.67
2022-11-20T04:39:13.069Z,2.88
2022-11-20T04:41:39.732Z,3.38
2022-11-20T04:44:06.825Z,3.03
2022-11-20T04:46:38.152Z,3.40
2022-11-20T04:49:05.149Z,3.60
2022-11-20T04:51:31.890Z,3.80
2022-11-20T04:53:58.521Z,3.63
2022-11-20T04:56:25.257Z,3.55
2022-11-20T04:58:51.901Z,3.13
2022-11-20T05:01:19.913Z,3.72
2022-11-20T05:03:46.777Z,3.35
2022-11-20T05:06:14.614Z,3.85
2022-11-20T05:08:41.456Z,3.58
2022-11-20T05:11:09.596Z,3.60
2022-11-20T05:13:36.425Z,3.28
2022-11-20T05:16:06.450Z,3.55
2022-11-20T05:18:34.070Z,3.10
2022-11-20T05:21:00.810Z,3.80
2022-11-20T05:25:58.712Z,3.47
2022-11-20T05:28:26.473Z,3.53
2022-11-20T05:33:18.965Z,3.70
2022-11-20T05:35:46.508Z,3.45
2022-11-20T05:45:29.509Z,3.50
2022-11-20T05:47:59.153Z,3.33
2022-11-20T05:50:25.745Z,3.17
2022-11-20T05:52:52.417Z,3.22
2022-11-20T05:55:19.090Z,3.40
2022-11-20T05:57:45.854Z,3.22
2022-11-20T06:00:12.883Z,3.10
2022-11-20T06:02:39.634Z,3.17
2022-11-20T06:05:06.564Z,3.30
2022-11-20T06:07:33.358Z,3.25
2022-11-20T06:10:00.047Z,3.22
2022-11-20T06:12:26.768Z,3.00
2022-11-20T06:14:53.358Z,3.50
2022-11-20T06:17:20.030Z,2.88
2022-11-20T06:19:46.588Z,3.40
2022-11-20T06:22:13.270Z,2.70
2022-11-20T06:24:40.053Z,2.45
2022-11-20T06:27:06.742Z,2.83
2022-11-20T06:29:34.250Z,2.70
2022-11-20T06:32:01.070Z,2.65
2022-11-20T06:34:27.745Z,2.45
2022-11-20T06:39:20.824Z,2.63
2022-11-20T06:41:47.642Z,2.15
2022-11-20T06:44:14.279Z,2.30
2022-11-20T06:46:40.930Z,3.30
2022-11-20T06:49:07.536Z,3.55
2022-11-20T06:53:59.661Z,3.42
2022-11-20T06:56:26.295Z,2.72
2022-11-20T07:01:18.699Z,2.85
2022-11-20T07:03:48.001Z,3.42
2022-11-20T07:06:18.032Z,3.13
2022-11-20T07:08:44.670Z,3.08
2022-11-20T07:11:14.305Z,3.10
2022-11-20T07:13:41.019Z,3.70
2022-11-20T07:16:08.408Z,2.70
2022-11-20T07:18:35.268Z,2.53
2022-11-20T07:21:03.009Z,3.03
2022-11-20T07:23:29.797Z,2.90
2022-11-20T07:25:56.584Z,2.60
2022-11-20T07:30:52.509Z,2.80
2022-11-20T07:33:19.623Z,2.30
2022-11-20T07:35:46.260Z,2.75
2022-11-20T07:38:12.935Z,2.50
2022-11-20T07:40:39.545Z,2.40
2022-11-20T07:45:31.723Z,2.30
2022-11-20T07:47:58.456Z,2.45
2022-11-20T07:52:50.467Z,2.67
2022-11-20T07:55:17.277Z,2.53
2022-11-20T07:57:43.934Z,2.55
2022-11-20T08:00:11.676Z,1.98
2022-11-20T08:02:41.630Z,2.08
2022-11-20T08:05:09.020Z,2.20
2022-11-20T08:07:38.928Z,2.25
2022-11-20T08:10:06.089Z,1.95
2022-11-20T08:12:51.405Z,2.05
2022-11-20T08:15:18.032Z,2.15
2022-11-20T08:18:02.035Z,2.60
2022-11-20T08:25:26.755Z,2.35
2022-11-20T08:30:18.783Z,3.45
2022-11-20T08:32:45.437Z,2.58
2022-11-20T08:37:39.630Z,2.78
2022-11-20T08:40:06.728Z,2.42
2022-11-20T08:44:58.824Z,2.30
2022-11-20T08:47:25.498Z,2.50
2022-11-20T08:49:52.169Z,3.10
2022-11-20T08:52:18.825Z,9.07
2022-11-20T08:54:45.525Z,6.05
2022-11-20T08:57:12.104Z,3.00
2022-11-20T09:02:04.264Z,2.20
2022-11-20T09:04:31.178Z,2.80
2022-11-20T09:14:22.680Z,3.50
2022-11-20T09:16:49.559Z,2.95
2022-11-20T09:26:56.141Z,2.67
2022-11-20T09:29:23.741Z,2.80
2022-11-20T09:31:50.809Z,2.38
2022-11-20T09:36:48.797Z,1.90
2022-11-20T09:39:16.355Z,2.55
2022-11-20T09:54:50.310Z,3.00
2022-11-20T09:57:22.880Z,2.72
2022-11-20T09:59:59.597Z,2.88
2022-11-20T10:02:29.434Z,2.65
2022-11-20T10:21:03.067Z,3.10
2022-11-20T10:23:29.741Z,2.95
2022-11-20T10:26:25.645Z,3.35
2022-11-20T10:28:58.451Z,3.50
2022-11-20T10:31:34.489Z,4.03
2022-11-20T10:36:36.080Z,3.40
2022-11-20T10:39:12.629Z,3.90
2022-11-20T10:41:42.954Z,3.83
2022-11-20T10:44:15.600Z,4.20
2022-11-20T10:49:17.759Z,4.03
2022-11-20T10:56:50.187Z,4.63
2022-11-20T10:59:35.929Z,3.70
2022-11-20T11:02:03.574Z,4.03
2022-11-20T11:04:36.256Z,3.53
2022-11-20T11:09:42.606Z,3.85
2022-11-20T11:12:10.041Z,3.22
2022-11-20T11:17:19.309Z,3.75
2022-11-20T11:19:45.971Z,3.72
2022-11-20T11:22:17.832Z,3.65
2022-11-20T11:32:13.830Z,4.05
2022-11-20T11:34:40.524Z,5.03
2022-11-20T11:39:42.537Z,2.70
2022-11-20T11:42:10.521Z,4.05
2022-11-20T11:47:25.666Z,4.35
2022-11-20T11:50:02.336Z,3.72
2022-11-20T11:57:45.875Z,6.15
2022-11-20T12:00:16.702Z,4.30
2022-11-20T12:08:00.536Z,4.15
2022-11-20T12:10:30.208Z,4.30
2022-11-20T12:13:05.227Z,4.25
2022-11-20T12:15:34.200Z,4.55
2022-11-20T12:18:01.234Z,5.00
2022-11-20T12:25:36.446Z,4.70
2022-11-20T12:28:03.161Z,3.97
2022-11-20T12:30:33.387Z,3.95
2022-11-20T12:33:29.333Z,5.03
2022-11-20T12:35:58.855Z,4.10
2022-11-20T12:38:31.435Z,4.40
2022-11-20T12:40:58.071Z,3.63
2022-11-20T12:57:04.539Z,4.00
2022-11-20T12:59:49.831Z,4.28
2022-11-20T13:02:28.767Z,3.55
2022-11-20T13:10:00.436Z,3.38
2022-11-20T13:12:56.652Z,4.05
2022-11-20T13:15:41.093Z,3.95
2022-11-20T13:20:37.245Z,5.82
2022-11-20T13:23:03.905Z,5.78
2022-11-20T13:28:03.778Z,5.47
2022-11-20T13:30:31.380Z,4.13
2022-11-20T13:33:07.137Z,3.63
2022-11-20T13:35:34.895Z,4.50
2022-11-20T13:40:33.495Z,6.20
2022-11-20T13:45:55.486Z,3.90
2022-11-20T13:51:07.341Z,4.82
2022-11-20T13:53:40.093Z,3.67
2022-11-20T13:56:12.714Z,3.33
2022-11-20T13:59:01.200Z,4.88
2022-11-20T14:01:35.807Z,4.70
2022-11-20T14:04:09.388Z,3.88
2022-11-20T14:06:42.165Z,4.15
2022-11-20T14:16:44.003Z,3.72
2022-11-20T14:22:20.101Z,3.47
2022-11-20T14:24:47.293Z,3.35
2022-11-20T14:27:15.321Z,2.97
2022-11-20T14:29:42.633Z,2.88
2022-11-20T14:32:11.294Z,2.90
2022-11-20T14:34:43.038Z,2.80
2022-11-20T14:37:16.835Z,2.67
2022-11-20T14:39:49.584Z,2.78
2022-11-20T14:42:18.071Z,2.83
2022-11-20T14:44:45.166Z,2.63
2022-11-20T14:47:18.552Z,2.63
2022-11-20T14:49:46.045Z,2.45
2022-11-20T14:52:12.702Z,2.45
2022-11-20T14:54:51.899Z,2.88
2022-11-20T14:57:21.609Z,2.58
2022-11-20T14:59:49.089Z,3.03
2022-11-20T15:04:52.293Z,2.70
2022-11-20T15:15:13.092Z,2.70
2022-11-20T15:17:41.486Z,3.25
2022-11-20T15:25:15.836Z,2.63
2022-11-20T15:27:43.324Z,2.75
2022-11-20T15:30:14.557Z,3.05
2022-11-20T15:32:41.370Z,2.78
2022-11-20T15:35:08.231Z,3.08
2022-11-20T15:37:34.865Z,3.05
2022-11-20T15:40:01.637Z,2.88
2022-11-20T15:42:28.375Z,2.67
2022-11-20T15:44:55.080Z,2.30
2022-11-20T15:47:25.861Z,4.05
2022-11-20T15:49:52.437Z,2.88
2022-11-20T15:52:19.081Z,2.72
2022-11-20T15:54:45.767Z,2.65
2022-11-20T15:57:14.211Z,2.88
2022-11-20T15:59:42.666Z,2.88
2022-11-20T16:02:18.698Z,2.75
2022-11-20T16:04:46.034Z,3.42
2022-11-20T16:12:04.495Z,3.20
2022-11-20T16:14:49.612Z,3.20
2022-11-20T16:17:16.292Z,3.40
2022-11-20T16:19:42.914Z,3.70
2022-11-20T16:22:11.690Z,4.13
2022-11-20T16:24:38.396Z,5.50
2022-11-20T16:27:11.094Z,5.53
2022-11-20T16:29:40.666Z,6.07
2022-11-20T16:32:07.364Z,6.78
2022-11-20T16:34:33.977Z,5.13
2022-11-20T16:46:42.458Z,5.18
2022-11-20T16:49:13.019Z,4.13
2022-11-20T16:51:40.005Z,4.30
2022-11-20T16:54:07.721Z,3.38
2022-11-20T16:56:34.759Z,3.75
2022-11-20T16:59:02.831Z,3.95
2022-11-20T17:01:30.346Z,3.38
2022-11-20T17:06:31.697Z,3.50
2022-11-20T17:08:59.247Z,3.83
2022-11-20T17:11:26.549Z,4.25
2022-11-20T17:13:55.173Z,3.53
2022-11-20T17:16:24.457Z,4.80
2022-11-20T17:26:34.577Z,3.72
2022-11-20T17:29:10.225Z,3.67
2022-11-20T17:39:01.624Z,5.88
2022-11-20T17:41:29.722Z,5.80
2022-11-20T17:44:00.281Z,4.28
2022-11-20T17:46:28.102Z,4.18
2022-11-20T17:51:24.607Z,3.85
2022-11-20T17:53:53.003Z,3.25
2022-11-20T17:56:40.681Z,4.13
2022-11-20T17:59:08.385Z,3.63
2022-11-20T18:01:35.465Z,3.65
2022-11-20T18:04:03.143Z,3.65
2022-11-20T18:06:30.568Z,4.40
2022-11-20T18:09:00.579Z,4.53
2022-11-20T18:14:19.000Z,7.90
2022-11-20T18:16:47.034Z,4.80
2022-11-20T18:19:14.977Z,3.50
2022-11-20T18:21:41.924Z,3.78
2022-11-20T18:26:34.485Z,5.03
2022-11-20T18:29:07.084Z,3.88
2022-11-20T18:31:34.464Z,4.43
2022-11-20T18:34:01.179Z,5.35
2022-11-20T18:36:29.781Z,4.60
2022-11-20T18:46:56.300Z,5.78
2022-11-20T18:49:22.971Z,5.82
2022-11-20T18:54:15.156Z,5.63
2022-11-20T18:56:46.815Z,5.03
2022-11-20T19:01:39.937Z,4.85
2022-11-20T19:04:07.595Z,6.03
2022-11-20T19:08:59.978Z,7.45
2022-11-20T19:11:26.630Z,6.25
2022-11-20T19:13:53.487Z,6.47
2022-11-20T19:16:22.473Z,5.95
2022-11-20T19:18:49.385Z,7.30
2022-11-20T19:21:21.711Z,6.93
2022-11-20T19:23:51.267Z,6.10
2022-11-20T19:26:18.169Z,6.20
2022-11-20T19:36:14.113Z,6.80
2022-11-20T19:38:46.436Z,6.75
2022-11-20T19:41:15.265Z,5.45
2022-11-20T19:43:42.019Z,5.95
2022-11-20T19:46:08.984Z,5.85
2022-11-20T19:48:37.265Z,5.97
2022-11-20T19:51:22.176Z,6.85
2022-11-20T19:58:45.869Z,5.47
2022-11-20T20:08:39.394Z,8.13
2022-11-20T20:11:14.904Z,9.75
2022-11-20T20:16:08.428Z,5.40
2022-11-20T20:18:35.153Z,5.72
2022-11-20T20:21:03.877Z,4.60
2022-11-20T20:23:30.706Z,4.63
2022-11-20T20:25:57.467Z,3.97
2022-11-20T20:28:24.019Z,4.30
2022-11-20T20:30:50.761Z,4.20
2022-11-20T20:33:17.482Z,4.55
2022-11-20T20:35:44.213Z,4.10
2022-11-20T20:38:11.112Z,4.13
2022-11-20T20:40:37.760Z,4.05
2022-11-20T20:43:04.763Z,4.05
2022-11-20T20:47:56.888Z,4.10
2022-11-20T20:50:23.585Z,4.75
2022-11-20T20:52:50.222Z,5.15
2022-11-20T20:55:16.837Z,4.72
2022-11-20T20:57:44.599Z,5.32
2022-11-20T21:00:11.503Z,4.60
2022-11-20T21:05:03.971Z,5.03
2022-11-20T21:07:30.723Z,5.45
2022-11-20T21:09:57.396Z,5.22
2022-11-20T21:12:24.055Z,4.95
2022-11-20T21:14:50.699Z,5.53
2022-11-20T21:17:17.384Z,5.03
2022-11-20T21:19:44.068Z,18.65
2022-11-20T21:22:10.683Z,10.73
2022-11-20T21:27:03.813Z,10.15
2022-11-20T21:29:30.600Z,7.05
2022-11-20T21:31:57.716Z,11.98
2022-11-20T21:34:24.920Z,9.90
2022-11-20T21:36:52.067Z,8.40
2022-11-20T21:41:47.261Z,6.38
2022-11-20T21:44:31.586Z,5.68
2022-11-20T21:46:58.696Z,4.85
2022-11-20T21:49:25.683Z,4.28
2022-11-20T21:51:53.757Z,4.07
2022-11-20T21:54:20.427Z,4.20
2022-11-20T21:56:47.109Z,4.97
2022-11-20T21:59:18.979Z,6.32
2022-11-20T22:01:45.770Z,5.57
2022-11-20T22:04:13.189Z,5.57
2022-11-20T22:06:40.417Z,5.10
2022-11-20T22:14:16.788Z,5.10
2022-11-20T22:16:43.456Z,5.65
2022-11-20T22:19:10.094Z,6.00
2022-11-20T22:24:04.335Z,6.68
2022-11-20T22:26:34.941Z,6.68
2022-11-20T22:29:02.770Z,5.65
2022-11-20T22:33:55.796Z,5.63
2022-11-20T22:36:23.878Z,6.60
2022-11-20T22:41:21.072Z,7.03
2022-11-20T22:43:48.290Z,6.38
2022-11-20T22:51:13.097Z,5.30
2022-11-20T22:53:40.110Z,5.30
2022-11-20T22:56:07.214Z,4.57
2022-11-20T22:58:34.761Z,5.88
2022-11-20T23:01:08.620Z,4.38
2022-11-20T23:03:35.484Z,4.75
2022-11-20T23:06:02.411Z,4.90
2022-11-20T23:13:27.577Z,4.15
2022-11-20T23:15:54.529Z,5.75
2022-11-20T23:20:46.670Z,6.55
2022-11-20T23:23:13.433Z,4.90
2022-11-20T23:25:40.158Z,4.63
2022-11-20T23:30:32.203Z,5.25
2022-11-20T23:32:58.864Z,5.03
2022-11-20T23:35:25.470Z,4.32
2022-11-20T23:37:52.203Z,5.28
2022-11-20T23:40:18.845Z,4.53
2022-11-20T23:43:03.941Z,4.93
2022-11-20T23:45:30.618Z,4.30
2022-11-20T23:47:57.257Z,5.47
2022-11-20T23:50:23.965Z,4.78
2022-11-20T23:52:50.609Z,5.15
2022-11-20T23:55:17.211Z,4.80
2022-11-20T23:57:43.798Z,5.50
